createdAt,value
2022-10-21T00:01:05.396Z,4.90
2022-10-21T00:03:34.809Z,4.90
2022-10-21T00:06:03.247Z,4.90
2022-10-21T00:08:31.258Z,4.90
2022-10-21T00:11:00.569Z,4.90
2022-10-21T00:13:30.293Z,4.90
2022-10-21T00:16:03.246Z,4.90
2022-10-21T00:18:32.368Z,4.90
2022-10-21T00:21:05.581Z,4.90
2022-10-21T00:23:33.738Z,4.90
2022-10-21T00:26:02.198Z,4.90
2022-10-21T00:28:30.281Z,4.90
2022-10-21T00:30:58.963Z,4.80
2022-10-21T00:33:29.052Z,4.80
2022-10-21T00:35:59.743Z,4.80
2022-10-21T00:38:29.561Z,4.80
2022-10-21T00:40:57.941Z,4.70
2022-10-21T00:43:26.826Z,4.70
2022-10-21T00:45:58.537Z,4.60
2022-10-21T00:48:33.153Z,4.60
2022-10-21T00:51:05.093Z,4.50
2022-10-21T00:53:36.412Z,4.50
2022-10-21T00:56:14.090Z,4.50
2022-10-21T00:58:47.584Z,4.50
2022-10-21T01:01:19.229Z,4.40
2022-10-21T01:03:50.156Z,4.40
2022-10-21T01:06:21.789Z,4.50
2022-10-21T01:08:52.951Z,4.50
2022-10-21T01:11:22.273Z,4.60
2022-10-21T01:14:14.204Z,4.60
2022-10-21T01:16:51.518Z,4.60
2022-10-21T01:19:52.581Z,4.60
2022-10-21T01:22:36.902Z,4.60
2022-10-21T01:25:27.046Z,4.60
2022-10-21T01:28:03.077Z,4.50
2022-10-21T01:30:41.135Z,4.50
2022-10-21T01:33:24.321Z,4.50
2022-10-21T01:35:58.913Z,4.50
2022-10-21T01:38:35.251Z,4.60
2022-10-21T01:41:10.817Z,4.60
2022-10-21T01:43:46.534Z,4.60
2022-10-21T01:46:23.701Z,4.60
2022-10-21T01:48:55.996Z,4.60
2022-10-21T01:51:26.751Z,4.60
2022-10-21T01:54:01.321Z,4.60
2022-10-21T01:56:30.580Z,4.50
2022-10-21T01:58:59.609Z,4.50
2022-10-21T02:01:29.992Z,4.50
2022-10-21T02:04:02.276Z,4.50
2022-10-21T02:06:30.417Z,4.50
2022-10-21T02:08:58.618Z,4.50
2022-10-21T02:11:26.762Z,4.50
2022-10-21T02:13:59.058Z,4.50
2022-10-21T02:16:31.360Z,4.50
2022-10-21T02:19:01.531Z,4.50
2022-10-21T02:21:32.767Z,4.50
2022-10-21T02:24:06.423Z,4.50
2022-10-21T02:26:34.454Z,4.50
2022-10-21T02:29:02.761Z,4.40
2022-10-21T02:31:44.169Z,4.40
2022-10-21T02:34:27.096Z,4.40
2022-10-21T02:36:59.532Z,4.40
2022-10-21T02:39:44.687Z,4.40
2022-10-21T02:42:17.980Z,4.40
2022-10-21T02:44:45.999Z,4.40
2022-10-21T02:47:16.709Z,4.40
2022-10-21T02:49:45.114Z,4.30
2022-10-21T02:52:13.608Z,4.30
2022-10-21T02:54:41.881Z,4.30
2022-10-21T02:57:09.978Z,4.30
2022-10-21T02:59:50.986Z,4.30
2022-10-21T03:02:41.004Z,4.20
2022-10-21T03:05:10.781Z,4.20
2022-10-21T03:07:39.011Z,4.30
2022-10-21T03:10:08.077Z,4.30
2022-10-21T03:12:36.108Z,4.30
2022-10-21T03:15:06.929Z,4.30
2022-10-21T03:17:36.520Z,4.30
2022-10-21T03:20:05.096Z,4.30
2022-10-21T03:22:34.487Z,4.30
2022-10-21T03:25:02.582Z,4.20
2022-10-21T03:30:04.876Z,4.20
2022-10-21T03:32:33.091Z,4.10
2022-10-21T03:35:02.741Z,4.10
2022-10-21T03:37:30.737Z,4.10
2022-10-21T03:40:00.013Z,4.10
2022-10-21T03:42:29.246Z,4.10
2022-10-21T03:45:04.006Z,4.10
2022-10-21T03:47:32.075Z,4.10
2022-10-21T03:50:00.109Z,4.00
2022-10-21T03:52:29.537Z,4.00
2022-10-21T03:54:57.586Z,4.00
2022-10-21T03:57:25.597Z,4.00
2022-10-21T03:59:53.627Z,4.00
2022-10-21T04:02:21.760Z,3.90
2022-10-21T04:04:56.011Z,3.90
2022-10-21T04:07:24.052Z,3.90
2022-10-21T04:09:53.803Z,3.80
2022-10-21T04:12:21.786Z,3.80
2022-10-21T04:14:49.814Z,3.80
2022-10-21T04:17:17.844Z,3.80
2022-10-21T04:19:45.863Z,3.80
2022-10-21T04:22:13.893Z,3.80
2022-10-21T04:24:42.029Z,3.80
2022-10-21T04:27:11.402Z,3.80
2022-10-21T04:29:39.450Z,3.80
2022-10-21T04:32:08.521Z,3.80
2022-10-21T04:34:36.529Z,3.80
2022-10-21T04:37:05.309Z,3.80
2022-10-21T04:39:34.041Z,3.80
2022-10-21T04:42:02.161Z,3.80
2022-10-21T04:44:31.512Z,3.80
2022-10-21T04:46:59.606Z,3.80
2022-10-21T04:49:34.017Z,3.80
2022-10-21T04:52:03.006Z,3.80
2022-10-21T04:54:30.993Z,3.70
2022-10-21T04:56:59.304Z,3.70
2022-10-21T04:59:27.313Z,3.70
2022-10-21T05:01:56.850Z,3.70
2022-10-21T05:04:24.918Z,3.70
2022-10-21T05:06:53.395Z,3.70
2022-10-21T05:09:21.422Z,3.70
2022-10-21T05:11:49.494Z,3.70
2022-10-21T05:14:21.546Z,3.70
2022-10-21T05:16:50.859Z,3.70
2022-10-21T05:19:20.381Z,3.70
2022-10-21T05:21:48.453Z,3.70
2022-10-21T05:24:16.565Z,3.70
2022-10-21T05:26:44.864Z,3.60
2022-10-21T05:29:12.916Z,3.60
2022-10-21T05:31:40.925Z,3.60
2022-10-21T05:34:08.994Z,3.60
2022-10-21T05:36:40.654Z,3.60
2022-10-21T05:39:11.443Z,3.60
2022-10-21T05:41:41.915Z,3.60
2022-10-21T05:44:12.725Z,3.60
2022-10-21T05:46:40.918Z,3.60
2022-10-21T05:49:09.529Z,3.60
2022-10-21T05:51:39.036Z,3.70
2022-10-21T05:54:07.102Z,3.70
2022-10-21T05:56:35.193Z,3.80
2022-10-21T05:59:05.489Z,3.80
2022-10-21T06:01:36.124Z,3.90
2022-10-21T06:04:04.348Z,4.00
2022-10-21T06:06:32.357Z,4.10
2022-10-21T06:09:02.029Z,4.20
2022-10-21T06:11:30.149Z,4.20
2022-10-21T06:13:58.473Z,4.30
2022-10-21T06:16:26.472Z,4.30
2022-10-21T06:18:54.535Z,4.30
2022-10-21T06:21:22.748Z,4.30
2022-10-21T06:23:54.942Z,4.30
2022-10-21T06:26:25.185Z,4.40
2022-10-21T06:28:53.234Z,4.40
2022-10-21T06:31:22.748Z,4.50
2022-10-21T06:33:50.828Z,4.50
2022-10-21T06:36:22.888Z,4.60
2022-10-21T06:38:51.301Z,4.60
2022-10-21T06:41:20.072Z,4.70
2022-10-21T06:43:49.598Z,4.80
2022-10-21T06:46:18.237Z,4.80
2022-10-21T06:48:46.273Z,4.90
2022-10-21T06:51:16.062Z,5.00
2022-10-21T06:53:44.954Z,5.20
2022-10-21T06:56:21.095Z,5.40
2022-10-21T06:58:51.367Z,5.50
2022-10-21T07:01:33.428Z,5.50
2022-10-21T07:04:09.373Z,5.60
2022-10-21T07:06:37.779Z,5.60
2022-10-21T07:09:10.496Z,5.60
2022-10-21T07:11:39.161Z,5.80
2022-10-21T07:14:08.914Z,5.80
2022-10-21T07:16:38.416Z,5.80
2022-10-21T07:19:07.174Z,5.70
2022-10-21T07:21:35.302Z,5.70
2022-10-21T07:24:03.373Z,5.70
2022-10-21T07:26:35.166Z,5.70
2022-10-21T07:29:03.466Z,5.70
2022-10-21T07:31:38.556Z,5.80
2022-10-21T07:34:08.147Z,6.20
2022-10-21T07:36:42.580Z,7.20
2022-10-21T07:39:13.483Z,8.30
2022-10-21T07:41:43.913Z,9.30
2022-10-21T07:44:12.131Z,10.10
2022-10-21T07:46:42.765Z,10.70
2022-10-21T07:49:19.116Z,10.70
2022-10-21T07:51:50.502Z,10.30
2022-10-21T07:54:19.805Z,9.80
2022-10-21T07:56:49.566Z,9.50
2022-10-21T07:59:19.201Z,9.70
2022-10-21T08:04:20.762Z,11.40
2022-10-21T08:06:50.046Z,11.70
2022-10-21T08:09:19.271Z,11.50
2022-10-21T08:11:47.686Z,11.70
2022-10-21T08:14:16.621Z,12.10
2022-10-21T08:16:44.651Z,12.60
2022-10-21T08:19:19.828Z,13.10
2022-10-21T08:21:48.249Z,13.30
2022-10-21T08:24:18.573Z,13.20
2022-10-21T08:26:46.542Z,12.90
2022-10-21T08:29:14.813Z,12.50
2022-10-21T08:31:42.852Z,11.60
2022-10-21T08:34:10.946Z,11.30
2022-10-21T08:36:40.860Z,11.00
2022-10-21T08:39:08.999Z,11.10
2022-10-21T08:42:13.151Z,11.30
2022-10-21T08:44:47.908Z,11.20
2022-10-21T08:47:25.875Z,11.40
2022-10-21T08:49:59.306Z,11.40
2022-10-21T08:52:35.941Z,11.50
2022-10-21T08:55:05.636Z,11.50
2022-10-21T08:57:35.967Z,11.50
2022-10-21T09:00:14.823Z,11.60
2022-10-21T09:02:56.084Z,11.70
2022-10-21T09:05:37.141Z,11.50
2022-10-21T09:08:16.471Z,11.40
2022-10-21T09:10:57.252Z,11.30
2022-10-21T09:13:56.204Z,11.20
2022-10-21T09:16:32.373Z,11.20
2022-10-21T09:19:12.763Z,11.20
2022-10-21T09:22:01.503Z,11.20
2022-10-21T09:24:48.430Z,11.20
2022-10-21T09:27:22.761Z,11.10
2022-10-21T09:30:03.327Z,11.00
2022-10-21T09:32:34.416Z,11.10
2022-10-21T09:35:07.414Z,11.20
2022-10-21T09:37:41.983Z,11.20
2022-10-21T09:40:17.021Z,11.10
2022-10-21T09:42:52.247Z,11.10
2022-10-21T09:45:25.891Z,11.10
2022-10-21T09:47:58.189Z,11.00
2022-10-21T09:50:27.129Z,10.90
2022-10-21T09:53:02.500Z,10.90
2022-10-21T09:55:33.145Z,10.90
2022-10-21T09:58:02.732Z,10.90
2022-10-21T10:00:46.678Z,10.80
2022-10-21T10:03:30.825Z,11.00
2022-10-21T10:05:59.224Z,11.10
2022-10-21T10:08:32.589Z,11.20
2022-10-21T10:11:24.179Z,11.00
2022-10-21T10:13:54.397Z,11.10
2022-10-21T10:16:27.405Z,11.20
2022-10-21T10:19:12.595Z,11.00
2022-10-21T10:21:40.642Z,11.10
2022-10-21T10:24:18.381Z,11.20
2022-10-21T10:26:48.914Z,11.20
2022-10-21T10:29:26.767Z,11.30
2022-10-21T10:32:04.177Z,11.40
2022-10-21T10:34:35.507Z,11.40
2022-10-21T10:37:07.851Z,11.40
2022-10-21T10:39:39.860Z,11.50
2022-10-21T10:42:09.819Z,11.40
2022-10-21T10:44:40.739Z,11.50
2022-10-21T10:47:19.118Z,11.50
2022-10-21T10:49:47.834Z,11.50
2022-10-21T10:52:21.463Z,11.60
2022-10-21T10:54:50.391Z,11.60
2022-10-21T10:57:29.904Z,11.60
2022-10-21T11:00:15.273Z,11.60
2022-10-21T11:02:55.210Z,11.60
2022-10-21T11:05:28.857Z,11.60
2022-10-21T11:08:00.027Z,11.60
2022-10-21T11:10:33.328Z,11.70
2022-10-21T11:13:04.585Z,11.70
2022-10-21T11:15:47.938Z,11.70
2022-10-21T11:18:24.916Z,11.70
2022-10-21T11:21:06.247Z,11.70
2022-10-21T11:24:06.302Z,11.70
2022-10-21T11:26:41.900Z,11.70
2022-10-21T11:29:29.350Z,11.70
2022-10-21T11:32:11.580Z,11.70
2022-10-21T11:34:53.958Z,11.70
2022-10-21T11:37:32.051Z,11.60
2022-10-21T11:40:10.575Z,11.60
2022-10-21T11:42:42.822Z,11.70
2022-10-21T11:45:31.954Z,11.70
2022-10-21T11:48:08.804Z,11.80
2022-10-21T11:50:45.238Z,11.80
2022-10-21T11:53:50.261Z,11.80
2022-10-21T11:56:25.082Z,11.90
2022-10-21T11:59:06.837Z,11.90
2022-10-21T12:01:48.735Z,11.90
2022-10-21T12:04:43.227Z,11.90
2022-10-21T12:07:25.239Z,11.90
2022-10-21T12:09:57.961Z,11.90
2022-10-21T12:12:33.198Z,11.90
2022-10-21T12:15:04.209Z,12.00
2022-10-21T12:20:22.866Z,12.00
2022-10-21T12:22:57.228Z,12.00
2022-10-21T12:25:37.521Z,12.10
2022-10-21T12:28:11.534Z,12.10
2022-10-21T12:30:45.071Z,12.10
2022-10-21T12:33:36.741Z,12.20
2022-10-21T12:36:19.005Z,12.30
2022-10-21T12:38:50.014Z,12.40
2022-10-21T12:41:34.427Z,12.40
2022-10-21T12:44:16.028Z,12.40
2022-10-21T12:46:46.661Z,12.50
2022-10-21T12:49:25.169Z,12.50
2022-10-21T12:52:03.451Z,12.60
2022-10-21T12:54:37.533Z,12.70
2022-10-21T12:57:07.662Z,12.70
2022-10-21T12:59:44.232Z,12.70
2022-10-21T13:02:28.454Z,12.70
2022-10-21T13:04:59.829Z,12.70
2022-10-21T13:08:12.086Z,12.70
2022-10-21T13:10:41.798Z,12.70
2022-10-21T13:13:35.539Z,12.80
2022-10-21T13:16:35.383Z,12.90
2022-10-21T13:19:05.490Z,12.80
2022-10-21T13:21:44.716Z,12.90
2022-10-21T13:24:24.756Z,12.90
2022-10-21T13:26:57.111Z,13.00
2022-10-21T13:29:41.746Z,12.90
2022-10-21T13:32:28.468Z,12.90
2022-10-21T13:35:13.247Z,12.90
2022-10-21T13:37:52.798Z,13.00
2022-10-21T13:40:22.996Z,13.00
2022-10-21T13:42:57.797Z,13.00
2022-10-21T13:45:28.654Z,13.00
2022-10-21T13:48:08.347Z,13.00
2022-10-21T13:50:40.863Z,13.00
2022-10-21T13:53:24.781Z,12.90
2022-10-21T13:55:58.312Z,12.90
2022-10-21T13:58:29.140Z,12.90
2022-10-21T14:01:10.329Z,12.90
2022-10-21T14:03:38.823Z,12.90
2022-10-21T14:06:09.534Z,12.90
2022-10-21T14:08:42.244Z,13.00
2022-10-21T14:11:17.428Z,12.90
2022-10-21T14:13:49.242Z,12.90
2022-10-21T14:16:23.279Z,12.90
2022-10-21T14:18:52.237Z,12.90
2022-10-21T14:21:23.741Z,12.90
2022-10-21T14:23:54.804Z,12.90
2022-10-21T14:26:33.294Z,12.90
2022-10-21T14:29:04.148Z,12.80
2022-10-21T14:31:32.791Z,12.90
2022-10-21T14:34:00.898Z,12.90
2022-10-21T14:36:30.215Z,12.80
2022-10-21T14:39:00.950Z,12.80
2022-10-21T14:41:35.062Z,12.80
2022-10-21T14:44:13.572Z,12.80
2022-10-21T14:46:43.993Z,12.70
2022-10-21T14:49:23.614Z,12.70
2022-10-21T14:51:57.240Z,12.70
2022-10-21T14:54:30.336Z,12.70
2022-10-21T14:57:01.659Z,12.70
2022-10-21T14:59:37.377Z,12.70
2022-10-21T15:02:06.974Z,12.70
2022-10-21T15:04:51.697Z,12.70
2022-10-21T15:07:28.841Z,12.70
2022-10-21T15:10:14.090Z,12.60
2022-10-21T15:12:43.456Z,12.60
2022-10-21T15:15:44.006Z,12.60
2022-10-21T15:18:15.654Z,12.60
2022-10-21T15:20:59.482Z,12.50
2022-10-21T15:23:31.059Z,12.50
2022-10-21T15:26:01.272Z,12.50
2022-10-21T15:28:34.490Z,12.40
2022-10-21T15:31:16.401Z,12.40
2022-10-21T15:33:44.418Z,12.40
2022-10-21T15:36:13.123Z,12.40
2022-10-21T15:38:46.527Z,12.30
2022-10-21T15:41:16.342Z,12.30
2022-10-21T15:43:45.304Z,12.30
2022-10-21T15:46:14.669Z,12.30
2022-10-21T15:48:42.645Z,12.20
2022-10-21T15:51:10.648Z,12.20
2022-10-21T15:53:40.984Z,12.10
2022-10-21T15:56:13.728Z,12.10
2022-10-21T15:58:44.141Z,12.10
2022-10-21T16:01:15.559Z,12.10
2022-10-21T16:03:44.441Z,12.00
2022-10-21T16:06:16.996Z,12.00
2022-10-21T16:08:45.285Z,12.00
2022-10-21T16:11:18.898Z,12.00
2022-10-21T16:13:53.862Z,11.90
2022-10-21T16:16:32.341Z,11.90
2022-10-21T16:19:00.693Z,11.90
2022-10-21T16:21:28.667Z,11.80
2022-10-21T16:23:58.372Z,11.80
2022-10-21T16:26:28.960Z,11.80
2022-10-21T16:29:00.925Z,11.80
2022-10-21T16:31:30.700Z,11.80
2022-10-21T16:34:01.024Z,11.70
2022-10-21T16:36:32.242Z,11.70
2022-10-21T16:39:00.267Z,11.80
2022-10-21T16:41:28.845Z,11.70
2022-10-21T16:43:57.364Z,11.70
2022-10-21T16:46:27.742Z,11.70
2022-10-21T16:48:57.955Z,11.70
2022-10-21T16:51:28.573Z,11.70
2022-10-21T16:53:56.586Z,11.70
2022-10-21T16:56:25.127Z,11.60
2022-10-21T16:58:53.695Z,11.60
2022-10-21T17:01:23.953Z,11.60
2022-10-21T17:03:52.168Z,11.60
2022-10-21T17:06:24.654Z,11.60
2022-10-21T17:08:54.582Z,11.60
2022-10-21T17:11:25.284Z,11.60
2022-10-21T17:13:53.346Z,11.60
2022-10-21T17:16:24.604Z,11.50
2022-10-21T17:18:52.618Z,11.50
2022-10-21T17:21:24.324Z,11.50
2022-10-21T17:23:59.407Z,11.50
2022-10-21T17:26:28.179Z,11.50
2022-10-21T17:28:56.915Z,11.50
2022-10-21T17:31:26.940Z,11.50
2022-10-21T17:33:57.445Z,11.40
2022-10-21T17:36:27.246Z,11.40
2022-10-21T17:39:01.382Z,11.40
2022-10-21T17:41:29.644Z,11.40
2022-10-21T17:43:57.721Z,11.40
2022-10-21T17:46:26.571Z,11.40
2022-10-21T17:48:56.608Z,11.40
2022-10-21T17:51:26.904Z,11.40
2022-10-21T17:53:55.898Z,11.40
2022-10-21T17:56:24.499Z,11.30
2022-10-21T17:58:53.614Z,11.30
2022-10-21T18:01:24.273Z,11.30
2022-10-21T18:03:52.742Z,11.30
2022-10-21T18:06:21.461Z,11.30
2022-10-21T18:08:50.966Z,11.20
2022-10-21T18:11:20.778Z,11.20
2022-10-21T18:13:56.212Z,11.20
2022-10-21T18:16:26.160Z,11.20
2022-10-21T18:18:57.257Z,11.20
2022-10-21T18:21:34.409Z,11.10
2022-10-21T18:24:07.460Z,11.10
2022-10-21T18:26:39.597Z,11.10
2022-10-21T18:29:07.627Z,11.10
2022-10-21T18:31:37.310Z,11.10
2022-10-21T18:34:09.047Z,11.00
2022-10-21T18:36:37.345Z,11.00
2022-10-21T18:39:07.021Z,11.00
2022-10-21T18:41:35.220Z,11.00
2022-10-21T18:44:08.093Z,10.90
2022-10-21T18:46:37.558Z,10.90
2022-10-21T18:49:07.288Z,10.90
2022-10-21T18:51:35.603Z,10.90
2022-10-21T18:54:03.749Z,10.90
2022-10-21T18:56:33.317Z,10.80
2022-10-21T18:59:01.962Z,10.80
2022-10-21T19:01:30.094Z,10.80
2022-10-21T19:03:58.280Z,10.80
2022-10-21T19:06:36.939Z,10.80
2022-10-21T19:09:08.437Z,10.80
2022-10-21T19:11:37.892Z,10.80
2022-10-21T19:14:08.448Z,10.80
2022-10-21T19:16:39.742Z,10.80
2022-10-21T19:19:08.491Z,10.80
2022-10-21T19:21:39.186Z,10.80
2022-10-21T19:24:08.165Z,10.80
2022-10-21T19:26:40.376Z,10.70
2022-10-21T19:29:10.652Z,10.70
2022-10-21T19:31:38.924Z,10.70
2022-10-21T19:34:07.630Z,10.70
2022-10-21T19:36:35.789Z,10.70
2022-10-21T19:39:03.953Z,10.70
2022-10-21T19:41:32.230Z,10.70
2022-10-21T19:44:04.014Z,10.70
2022-10-21T19:46:40.478Z,10.70
2022-10-21T19:49:10.161Z,10.70
2022-10-21T19:51:38.790Z,10.70
2022-10-21T19:54:07.896Z,10.70
2022-10-21T19:56:36.575Z,10.70
2022-10-21T19:59:07.015Z,10.70
2022-10-21T20:01:35.570Z,10.70
2022-10-21T20:04:04.322Z,10.70
2022-10-21T20:06:33.691Z,10.70
2022-10-21T20:09:07.280Z,10.70
2022-10-21T20:11:36.041Z,10.60
2022-10-21T20:14:09.602Z,10.60
2022-10-21T20:16:39.281Z,10.60
2022-10-21T20:19:08.558Z,10.60
2022-10-21T20:21:37.373Z,10.60
2022-10-21T20:24:06.501Z,10.60
2022-10-21T20:26:35.575Z,10.50
2022-10-21T20:29:05.067Z,10.50
2022-10-21T20:31:33.087Z,10.50
2022-10-21T20:34:01.238Z,10.50
2022-10-21T20:36:32.406Z,10.50
2022-10-21T20:39:02.201Z,10.50
2022-10-21T20:41:34.033Z,10.50
2022-10-21T20:44:15.485Z,10.50
2022-10-21T20:46:44.668Z,10.50
2022-10-21T20:49:13.509Z,10.50
2022-10-21T20:51:43.241Z,10.50
2022-10-21T20:54:14.583Z,10.50
2022-10-21T20:56:43.620Z,10.40
2022-10-21T20:59:15.898Z,10.40
2022-10-21T21:01:45.977Z,10.40
2022-10-21T21:04:16.458Z,10.40
2022-10-21T21:06:46.268Z,10.40
2022-10-21T21:09:33.545Z,10.40
2022-10-21T21:12:04.408Z,10.40
2022-10-21T21:14:34.018Z,10.40
2022-10-21T21:17:02.000Z,10.40
2022-10-21T21:19:30.523Z,10.40
2022-10-21T21:22:00.866Z,10.30
2022-10-21T21:24:28.877Z,10.30
2022-10-21T21:26:56.945Z,10.30
2022-10-21T21:29:25.012Z,10.30
2022-10-21T21:31:54.418Z,10.30
2022-10-21T21:34:22.405Z,10.30
2022-10-21T21:36:50.616Z,10.30
2022-10-21T21:39:18.892Z,10.30
2022-10-21T21:41:47.165Z,10.30
2022-10-21T21:44:15.678Z,10.20
2022-10-21T21:46:43.713Z,10.20
2022-10-21T21:49:13.092Z,10.20
2022-10-21T21:51:41.534Z,10.20
2022-10-21T21:54:09.601Z,10.10
2022-10-21T21:56:37.666Z,10.10
2022-10-21T21:59:05.763Z,10.10
2022-10-21T22:01:33.982Z,10.00
2022-10-21T22:04:02.371Z,10.00
2022-10-21T22:06:33.677Z,10.00
2022-10-21T22:09:04.361Z,9.90
2022-10-21T22:11:33.595Z,10.00
2022-10-21T22:14:01.654Z,9.90
2022-10-21T22:16:31.020Z,9.90
2022-10-21T22:19:02.584Z,9.90
2022-10-21T22:21:32.877Z,9.90
2022-10-21T22:24:01.230Z,9.80
2022-10-21T22:26:30.017Z,9.80
2022-10-21T22:29:00.600Z,9.80
2022-10-21T22:31:30.512Z,9.70
2022-10-21T22:34:04.354Z,9.80
2022-10-21T22:36:36.057Z,9.70
2022-10-21T22:39:04.502Z,9.70
2022-10-21T22:41:32.539Z,9.70
2022-10-21T22:44:01.643Z,9.70
2022-10-21T22:46:34.262Z,9.70
2022-10-21T22:49:03.833Z,9.60
2022-10-21T22:51:39.611Z,9.60
2022-10-21T22:54:19.310Z,9.60
2022-10-21T22:56:57.697Z,9.60
2022-10-21T22:59:25.705Z,9.50
2022-10-21T23:01:53.725Z,9.50
2022-10-21T23:04:23.291Z,9.50
2022-10-21T23:06:52.083Z,9.50
2022-10-21T23:09:21.458Z,9.50
2022-10-21T23:11:49.470Z,9.50
2022-10-21T23:14:17.461Z,9.50
2022-10-21T23:16:45.438Z,9.50
2022-10-21T23:19:13.541Z,9.50
2022-10-21T23:21:42.362Z,9.40
2022-10-21T23:24:10.739Z,9.40
2022-10-21T23:26:46.555Z,9.40
2022-10-21T23:29:14.632Z,9.40
2022-10-21T23:31:42.954Z,9.40
2022-10-21T23:34:11.286Z,9.40
2022-10-21T23:36:39.283Z,9.30
2022-10-21T23:39:07.363Z,9.30
2022-10-21T23:41:41.537Z,9.30
2022-10-21T23:44:11.262Z,9.30
2022-10-21T23:46:39.246Z,9.30
2022-10-21T23:49:07.707Z,9.30
2022-10-21T23:51:35.808Z,9.30
2022-10-21T23:54:04.058Z,9.30
2022-10-21T23:56:32.461Z,9.30
2022-10-21T23:59:01.077Z,9.30
